createdAt,value
2018-09-17T00:00:45.370Z,99509.86
2018-09-17T00:03:13.898Z,99512.17
2018-09-17T00:05:42.531Z,99499.59
2018-09-17T00:08:12.020Z,99502.48
2018-09-17T00:10:40.646Z,99501.22
2018-09-17T00:13:09.161Z,99499.69
2018-09-17T00:15:37.680Z,99504.31
2018-09-17T00:18:06.346Z,99509.77
2018-09-17T00:20:35.735Z,99502.90
2018-09-17T00:23:04.350Z,99508.31
2018-09-17T00:25:32.832Z,99509.73
2018-09-17T00:28:01.869Z,99505.73
2018-09-17T00:30:30.623Z,99502.69
2018-09-17T00:33:00.203Z,99507.33
2018-09-17T00:35:29.721Z,99496.10
2018-09-17T00:37:58.226Z,99496.69
2018-09-17T00:40:27.618Z,99494.09
2018-09-17T00:42:56.155Z,99497.91
2018-09-17T00:45:25.166Z,99497.25
2018-09-17T00:47:53.883Z,99494.68
2018-09-17T00:50:23.061Z,99487.33
2018-09-17T00:52:54.374Z,99487.59
2018-09-17T00:55:22.859Z,99490.25
2018-09-17T00:57:51.477Z,99490.03
2018-09-17T01:00:20.637Z,99496.97
2018-09-17T01:02:49.287Z,99489.66
2018-09-17T01:05:17.746Z,99486.20
2018-09-17T01:07:46.404Z,99484.59
2018-09-17T01:10:14.991Z,99488.09
2018-09-17T01:12:43.504Z,99482.97
2018-09-17T01:15:11.979Z,99480.13
2018-09-17T01:17:41.180Z,99481.95
2018-09-17T01:20:09.738Z,99486.06
2018-09-17T01:22:38.292Z,99487.23
2018-09-17T01:25:07.405Z,99483.59
2018-09-17T01:27:35.981Z,99483.34
2018-09-17T01:30:04.572Z,99477.71
2018-09-17T01:32:33.101Z,99484.19
2018-09-17T01:35:01.667Z,99485.59
2018-09-17T01:37:30.270Z,99489.22
2018-09-17T01:40:00.697Z,99488.09
2018-09-17T01:42:29.272Z,99487.56
2018-09-17T01:44:57.834Z,99489.05
2018-09-17T01:47:26.341Z,99486.73
2018-09-17T01:49:55.172Z,99492.18
2018-09-17T01:52:23.771Z,99496.73
2018-09-17T01:54:53.232Z,99504.62
2018-09-17T01:57:22.575Z,99501.45
2018-09-17T01:59:51.115Z,99502.90
2018-09-17T02:02:19.816Z,99503.30
2018-09-17T02:04:48.368Z,99500.32
2018-09-17T02:07:17.072Z,99501.08
2018-09-17T02:09:46.479Z,99496.94
2018-09-17T02:12:16.067Z,99502.76
2018-09-17T02:14:44.656Z,99503.92
2018-09-17T02:17:13.408Z,99499.13
2018-09-17T02:19:42.768Z,99499.34
2018-09-17T02:22:11.548Z,99506.59
2018-09-17T02:24:40.590Z,99509.64
2018-09-17T02:27:09.806Z,99514.95
2018-09-17T02:29:38.462Z,99508.20
2018-09-17T02:32:07.258Z,99512.47
2018-09-17T02:34:35.774Z,99509.89
2018-09-17T02:37:04.248Z,99515.48
2018-09-17T02:39:33.041Z,99521.27
2018-09-17T02:42:01.607Z,99525.98
2018-09-17T02:44:30.863Z,99523.95
2018-09-17T02:47:00.362Z,99525.77
2018-09-17T02:49:28.996Z,99523.69
2018-09-17T02:51:58.529Z,99524.15
2018-09-17T02:54:27.090Z,99522.53
2018-09-17T02:56:55.731Z,99519.92
2018-09-17T02:59:24.357Z,99523.20
2018-09-17T03:01:53.117Z,99512.36
2018-09-17T03:04:21.791Z,99513.19
2018-09-17T03:06:50.354Z,99517.22
2018-09-17T03:09:18.889Z,99519.09
2018-09-17T03:11:47.476Z,99518.54
2018-09-17T03:14:16.233Z,99518.29
2018-09-17T03:16:55.807Z,99515.26
2018-09-17T03:19:26.257Z,99513.82
2018-09-17T03:21:55.029Z,99507.85
2018-09-17T03:24:24.316Z,99515.15
2018-09-17T03:26:52.843Z,99524.73
2018-09-17T03:29:22.261Z,99533.22
2018-09-17T03:31:50.803Z,99532.22
2018-09-17T03:34:21.193Z,99540.09
2018-09-17T03:36:49.915Z,99530.88
2018-09-17T03:39:18.496Z,99531.62
2018-09-17T03:41:47.040Z,99527.41
2018-09-17T03:44:16.571Z,99523.70
2018-09-17T03:46:45.233Z,99518.19
2018-09-17T03:49:13.803Z,99520.25
2018-09-17T03:51:42.375Z,99518.42
2018-09-17T03:54:12.479Z,99521.55
2018-09-17T03:56:41.096Z,99526.23
2018-09-17T03:59:09.797Z,99526.73
2018-09-17T04:01:39.382Z,99530.86
2018-09-17T04:04:09.157Z,99532.22
2018-09-17T04:06:37.691Z,99528.73
2018-09-17T04:09:07.565Z,99524.48
2018-09-17T04:11:36.829Z,99516.88
2018-09-17T04:14:05.785Z,99515.70
2018-09-17T04:16:34.466Z,99517.05
2018-09-17T04:19:03.310Z,99514.39
2018-09-17T04:21:31.929Z,99504.38
2018-09-17T04:24:01.232Z,99510.03
2018-09-17T04:26:29.804Z,99517.42
2018-09-17T04:28:58.331Z,99519.48
2018-09-17T04:31:27.001Z,99512.61
2018-09-17T04:33:56.254Z,99514.87
2018-09-17T04:36:24.842Z,99522.23
2018-09-17T04:38:53.705Z,99525.50
2018-09-17T04:41:22.298Z,99522.12
2018-09-17T04:43:50.822Z,99524.27
2018-09-17T04:46:19.471Z,99525.75
2018-09-17T04:48:49.478Z,99535.02
2018-09-17T04:51:18.060Z,99538.17
2018-09-17T04:53:46.574Z,99542.00
2018-09-17T04:56:15.632Z,99353.80
2018-09-17T04:58:44.339Z,99544.50
2018-09-17T05:01:12.889Z,99540.78
2018-09-17T05:03:41.493Z,99536.16
2018-09-17T05:06:10.038Z,99546.81
2018-09-17T05:08:38.614Z,99544.80
2018-09-17T05:11:07.212Z,99561.72
2018-09-17T05:13:36.323Z,99565.63
2018-09-17T05:16:05.622Z,99558.36
2018-09-17T05:18:34.183Z,99555.98
2018-09-17T05:21:02.791Z,99555.26
2018-09-17T05:23:31.905Z,99562.63
2018-09-17T05:27:29.515Z,99560.31
2018-09-17T05:29:58.056Z,99561.53
2018-09-17T05:32:27.110Z,99555.38
2018-09-17T05:34:55.845Z,99549.38
2018-09-17T05:37:24.581Z,99554.68
2018-09-17T05:39:53.513Z,99551.63
2018-09-17T05:42:22.035Z,99555.00
2018-09-17T05:44:50.668Z,99556.20
2018-09-17T05:47:19.250Z,99564.80
2018-09-17T05:49:47.852Z,99566.83
2018-09-17T05:52:18.064Z,99569.59
2018-09-17T05:54:46.599Z,99569.20
2018-09-17T05:57:15.594Z,99554.27
2018-09-17T05:59:44.260Z,99550.98
2018-09-17T06:02:14.206Z,99548.55
2018-09-17T06:04:42.990Z,99555.46
2018-09-17T06:07:12.588Z,99557.83
2018-09-17T06:09:41.228Z,99562.38
2018-09-17T06:12:09.894Z,99564.11
2018-09-17T06:14:39.994Z,99565.36
2018-09-17T06:17:09.200Z,99562.34
2018-09-17T06:19:37.811Z,99566.32
2018-09-17T06:22:06.510Z,99561.63
2018-09-17T06:24:36.243Z,99557.80
2018-09-17T06:27:05.948Z,99552.81
2018-09-17T06:29:34.532Z,99548.86
2018-09-17T06:32:03.267Z,99543.19
2018-09-17T06:34:32.314Z,99544.95
2018-09-17T06:37:01.060Z,99547.04
2018-09-17T06:39:29.618Z,99556.83
2018-09-17T06:41:58.672Z,99553.03
2018-09-17T06:44:27.463Z,99548.34
2018-09-17T06:46:55.906Z,99542.68
2018-09-17T06:54:10.809Z,99545.03
2018-09-17T06:56:39.956Z,99546.67
2018-09-17T06:59:08.514Z,99556.20
2018-09-17T07:01:37.351Z,99542.95
2018-09-17T07:04:05.847Z,99542.20
2018-09-17T07:06:34.316Z,99537.84
2018-09-17T07:09:02.972Z,99538.98
2018-09-17T07:11:31.446Z,99541.32
2018-09-17T07:13:59.926Z,99392.45
2018-09-17T07:16:28.426Z,99542.23
2018-09-17T07:18:56.965Z,99537.88
2018-09-17T07:21:25.463Z,99549.55
2018-09-17T07:23:54.851Z,99543.83
2018-09-17T07:26:23.462Z,99539.70
2018-09-17T07:28:52.612Z,99545.04
2018-09-17T07:31:21.190Z,99545.67
2018-09-17T07:33:50.156Z,99542.81
2018-09-17T07:36:18.654Z,99530.97
2018-09-17T07:38:47.168Z,99529.17
2018-09-17T07:41:16.343Z,99534.02
2018-09-17T07:43:45.034Z,99532.24
2018-09-17T07:46:14.241Z,99529.42
2018-09-17T07:48:42.784Z,99534.65
2018-09-17T07:51:11.239Z,99525.27
2018-09-17T07:53:39.776Z,99526.55
2018-09-17T07:56:08.257Z,99529.97
2018-09-17T07:58:37.650Z,99531.33
2018-09-17T08:01:06.377Z,99534.59
2018-09-17T08:03:34.835Z,99526.72
2018-09-17T08:06:04.035Z,99535.28
2018-09-17T08:08:32.891Z,99526.16
2018-09-17T08:11:01.356Z,99527.02
2018-09-17T08:13:29.812Z,99526.70
2018-09-17T08:15:58.252Z,99522.50
2018-09-17T08:18:26.760Z,99521.08
2018-09-17T08:20:55.288Z,99507.06
2018-09-17T08:23:23.794Z,99511.77
2018-09-17T08:25:52.420Z,99514.95
2018-09-17T08:28:20.951Z,99511.59
2018-09-17T08:30:49.894Z,99517.58
2018-09-17T08:33:19.269Z,99511.86
2018-09-17T08:35:47.736Z,99518.01
2018-09-17T08:38:16.291Z,99513.27
2018-09-17T08:40:45.134Z,99516.84
2018-09-17T08:43:13.704Z,99513.42
2018-09-17T08:45:42.213Z,99512.03
2018-09-17T08:48:11.421Z,99506.69
2018-09-17T08:50:40.275Z,99513.00
2018-09-17T08:53:09.534Z,99511.73
2018-09-17T08:55:43.282Z,99514.12
2018-09-17T08:58:31.586Z,99507.81
2018-09-17T09:01:02.928Z,99508.52
2018-09-17T09:03:36.588Z,99514.70
2018-09-17T09:06:10.145Z,99503.25
2018-09-17T09:08:38.656Z,99496.72
2018-09-17T09:11:13.938Z,99494.67
2018-09-17T09:13:49.080Z,99493.22
2018-09-17T09:16:17.626Z,99496.42
2018-09-17T09:18:46.120Z,99499.38
2018-09-17T09:21:14.934Z,99494.27
2018-09-17T09:23:43.395Z,99496.07
2018-09-17T09:26:11.900Z,99495.80
2018-09-17T09:28:40.919Z,99491.81
2018-09-17T09:31:10.208Z,99493.81
2018-09-17T09:33:38.692Z,99490.45
2018-09-17T09:36:07.180Z,99494.49
2018-09-17T09:38:35.674Z,99489.30
2018-09-17T09:41:04.305Z,99483.41
2018-09-17T09:43:32.875Z,99481.75
2018-09-17T09:46:01.392Z,99474.09
2018-09-17T09:48:29.932Z,99473.84
2018-09-17T09:50:59.005Z,99476.95
2018-09-17T09:53:28.289Z,99467.46
2018-09-17T09:55:56.817Z,99459.94
2018-09-17T09:58:25.948Z,99427.08
2018-09-17T10:00:59.695Z,99455.55
2018-09-17T10:03:30.255Z,99453.41
2018-09-17T10:05:58.883Z,99455.31
2018-09-17T10:08:27.603Z,99453.27
2018-09-17T10:11:02.027Z,99450.05
2018-09-17T10:14:39.920Z,99445.32
2018-09-17T10:17:14.431Z,99445.87
2018-09-17T10:19:49.589Z,99439.69
2018-09-17T10:22:18.812Z,99437.11
2018-09-17T10:24:47.447Z,99440.84
2018-09-17T10:27:16.861Z,99439.06
2018-09-17T10:29:45.946Z,99437.33
2018-09-17T10:32:14.656Z,99439.17
2018-09-17T10:34:43.540Z,99435.53
2018-09-17T10:37:12.709Z,99432.42
2018-09-17T10:39:41.258Z,99423.02
2018-09-17T10:42:09.704Z,99427.87
2018-09-17T10:44:38.234Z,99409.80
2018-09-17T10:47:06.746Z,99418.78
2018-09-17T10:49:35.227Z,99407.93
2018-09-17T10:52:03.662Z,99413.36
2018-09-17T10:54:33.011Z,99408.66
2018-09-17T10:57:01.494Z,99402.47
2018-09-17T10:59:29.995Z,99401.01
2018-09-17T11:01:58.517Z,99405.27
2018-09-17T11:04:26.980Z,99390.36
2018-09-17T11:06:55.509Z,99392.38
2018-09-17T11:09:24.501Z,99390.45
2018-09-17T11:11:53.017Z,99401.22
2018-09-17T11:14:22.286Z,99386.98
2018-09-17T11:16:51.370Z,99381.13
2018-09-17T11:19:22.462Z,99393.00
2018-09-17T11:21:50.965Z,99387.42
2018-09-17T11:24:19.484Z,99386.64
2018-09-17T11:26:48.063Z,99379.08
2018-09-17T11:29:16.556Z,99377.17
2018-09-17T11:31:45.075Z,99371.02
2018-09-17T11:34:13.605Z,99366.86
2018-09-17T11:36:42.782Z,99365.51
2018-09-17T11:39:12.076Z,99365.64
2018-09-17T11:41:40.981Z,99363.75
2018-09-17T11:44:10.115Z,99366.02
2018-09-17T11:46:38.864Z,99358.66
2018-09-17T11:49:08.150Z,99353.91
2018-09-17T11:51:36.682Z,99350.50
2018-09-17T11:54:05.271Z,99351.33
2018-09-17T11:56:33.752Z,99346.54
2018-09-17T11:59:02.403Z,99338.73
2018-09-17T12:01:36.319Z,99333.05
2018-09-17T12:04:09.959Z,99336.42
2018-09-17T12:06:43.776Z,99328.29
2018-09-17T12:09:13.011Z,99326.98
2018-09-17T12:11:42.105Z,99317.89
2018-09-17T12:14:10.587Z,99321.18
2018-09-17T12:16:39.094Z,99320.88
2018-09-17T12:19:07.584Z,99317.82
2018-09-17T12:21:36.177Z,99311.94
2018-09-17T12:24:04.634Z,99308.53
2018-09-17T12:26:34.593Z,99303.69
2018-09-17T12:29:03.046Z,99307.09
2018-09-17T12:31:32.043Z,99301.68
2018-09-17T12:34:00.594Z,99299.13
2018-09-17T12:36:29.009Z,99295.76
2018-09-17T12:38:57.440Z,99289.17
2018-09-17T12:41:25.923Z,99293.28
2018-09-17T12:43:54.395Z,99291.78
2018-09-17T12:46:23.538Z,99287.14
2018-09-17T12:48:51.983Z,99280.53
2018-09-17T12:51:20.515Z,99283.23
2018-09-17T12:53:48.963Z,99282.97
2018-09-17T12:56:17.375Z,99283.46
2018-09-17T12:58:46.131Z,99273.68
2018-09-17T13:01:14.620Z,99277.28
2018-09-17T13:03:43.119Z,99269.92
2018-09-17T13:06:11.605Z,99271.45
2018-09-17T13:08:41.144Z,99274.57
2018-09-17T13:11:10.291Z,99262.90
2018-09-17T13:13:39.711Z,99265.55
2018-09-17T13:16:09.370Z,99257.34
2018-09-17T13:18:37.808Z,99257.47
2018-09-17T13:21:06.251Z,99248.61
2018-09-17T13:23:34.727Z,99247.33
2018-09-17T13:26:03.185Z,99242.47
2018-09-17T13:28:32.400Z,99240.30
2018-09-17T13:31:00.961Z,99231.66
2018-09-17T13:33:29.359Z,99233.74
2018-09-17T13:35:57.790Z,99232.03
2018-09-17T13:38:26.237Z,99226.27
2018-09-17T13:40:54.658Z,99226.73
2018-09-17T13:43:23.173Z,99222.05
2018-09-17T13:45:51.597Z,99223.71
2018-09-17T13:48:20.030Z,99223.75
2018-09-17T13:50:48.503Z,99220.81
2018-09-17T13:53:16.959Z,99210.68
2018-09-17T13:55:45.662Z,99219.53
2018-09-17T13:58:14.166Z,99209.39
2018-09-17T14:00:42.604Z,99199.88
2018-09-17T14:03:11.076Z,99209.84
2018-09-17T14:05:39.530Z,99210.97
2018-09-17T14:08:08.103Z,99198.95
2018-09-17T14:10:37.130Z,99197.15
2018-09-17T14:13:05.613Z,99198.20
2018-09-17T14:15:34.075Z,99200.27
2018-09-17T14:18:07.611Z,99201.63
2018-09-17T14:20:36.091Z,99194.00
2018-09-17T14:23:04.564Z,99189.63
2018-09-17T14:25:33.042Z,99188.54
2018-09-17T14:28:01.534Z,99181.71
2018-09-17T14:30:29.947Z,99179.02
2018-09-17T14:33:03.796Z,99174.06
2018-09-17T14:35:32.417Z,99174.52
2018-09-17T14:38:00.946Z,99171.48
2018-09-17T14:40:29.375Z,99170.02
2018-09-17T14:42:57.825Z,99167.98
2018-09-17T14:45:26.247Z,99159.09
2018-09-17T14:47:54.780Z,99166.17
2018-09-17T14:50:25.252Z,99161.45
2018-09-17T14:52:53.680Z,99157.84
2018-09-17T14:55:22.150Z,99157.27
2018-09-17T14:57:50.546Z,99154.06
2018-09-17T15:00:18.922Z,99157.71
2018-09-17T15:02:47.343Z,99157.48
2018-09-17T15:05:15.719Z,99147.91
2018-09-17T15:07:44.262Z,99144.56
2018-09-17T15:10:12.770Z,99140.28
2018-09-17T15:12:41.164Z,99143.64
2018-09-17T15:15:09.683Z,99138.70
2018-09-17T15:17:38.160Z,99141.97
2018-09-17T15:20:06.651Z,99136.04
2018-09-17T15:22:35.157Z,99138.70
2018-09-17T15:25:03.692Z,99131.52
2018-09-17T15:27:32.348Z,99130.84
2018-09-17T15:30:02.348Z,99133.70
2018-09-17T15:32:31.007Z,99130.00
2018-09-17T15:35:00.154Z,99128.12
2018-09-17T15:37:28.715Z,99131.50
2018-09-17T15:39:57.190Z,99126.55
2018-09-17T15:42:25.801Z,99123.92
2018-09-17T15:44:54.906Z,99118.48
2018-09-17T15:47:23.439Z,99118.08
2018-09-17T15:49:51.998Z,99114.96
2018-09-17T15:52:20.610Z,99113.44
2018-09-17T15:54:49.160Z,99108.56
2018-09-17T15:57:18.342Z,99110.42
2018-09-17T15:59:47.402Z,99096.70
2018-09-17T16:02:15.902Z,99102.15
2018-09-17T16:04:44.571Z,99095.81
2018-09-17T16:07:13.108Z,99095.90
2018-09-17T16:09:41.659Z,99100.67
2018-09-17T16:12:10.168Z,99101.11
2018-09-17T16:14:38.718Z,99098.38
2018-09-17T16:17:07.340Z,99091.98
2018-09-17T16:19:37.018Z,99093.66
2018-09-17T16:22:05.641Z,99067.81
2018-09-17T16:24:34.142Z,99092.06
2018-09-17T16:27:02.667Z,99087.24
2018-09-17T16:29:32.891Z,99100.03
2018-09-17T16:32:01.504Z,99091.78
2018-09-17T16:34:30.060Z,99092.69
2018-09-17T16:36:58.623Z,99095.48
2018-09-17T16:39:27.560Z,99095.19
2018-09-17T16:41:56.591Z,99090.86
2018-09-17T16:44:25.584Z,99088.09
2018-09-17T16:46:54.100Z,99084.13
2018-09-17T16:49:22.612Z,99085.71
2018-09-17T16:51:51.161Z,99074.04
2018-09-17T16:54:20.333Z,99075.71
2018-09-17T16:56:48.934Z,99073.97
2018-09-17T16:59:19.171Z,99082.25
2018-09-17T17:01:47.719Z,99076.20
2018-09-17T17:04:16.341Z,99079.73
2018-09-17T17:06:45.286Z,99080.67
2018-09-17T17:09:14.658Z,99085.56
2018-09-17T17:11:43.845Z,99086.34
2018-09-17T17:14:12.525Z,99086.58
2018-09-17T17:16:43.763Z,99085.77
2018-09-17T17:19:12.340Z,99088.96
2018-09-17T17:21:40.900Z,99093.48
2018-09-17T17:24:09.428Z,99085.53
2018-09-17T17:26:38.036Z,99081.95
2018-09-17T17:29:06.608Z,99071.60
2018-09-17T17:31:35.690Z,99076.02
2018-09-17T17:34:04.216Z,99083.03
2018-09-17T17:36:32.685Z,99082.74
2018-09-17T17:39:01.274Z,99081.82
2018-09-17T17:41:30.235Z,99093.61
2018-09-17T17:43:59.105Z,99089.76
2018-09-17T17:46:27.849Z,99087.31
2018-09-17T17:48:56.236Z,99091.73
2018-09-17T17:51:24.684Z,99089.00
2018-09-17T17:53:53.224Z,99089.44
2018-09-17T17:56:21.691Z,99090.70
2018-09-17T17:58:51.302Z,99090.51
2018-09-17T18:01:20.018Z,99093.75
2018-09-17T18:03:49.059Z,99094.89
2018-09-17T18:06:17.428Z,99096.05
2018-09-17T18:08:45.841Z,99107.30
2018-09-17T18:11:16.163Z,99111.73
2018-09-17T18:13:45.989Z,99108.57
2018-09-17T18:16:14.436Z,99109.27
2018-09-17T18:18:42.950Z,99108.64
2018-09-17T18:21:11.387Z,99105.62
2018-09-17T18:23:40.480Z,99109.31
2018-09-17T18:26:08.934Z,99105.05
2018-09-17T18:28:37.639Z,99110.05
2018-09-17T18:31:06.506Z,99108.10
2018-09-17T18:33:35.044Z,99109.56
2018-09-17T18:36:05.081Z,99107.48
2018-09-17T18:38:33.601Z,99108.80
2018-09-17T18:41:02.574Z,99106.50
2018-09-17T18:43:31.595Z,99110.78
2018-09-17T18:46:00.092Z,99106.89
2018-09-17T18:48:28.870Z,99110.28
2018-09-17T18:50:57.518Z,99112.70
2018-09-17T18:53:25.966Z,99116.69
2018-09-17T18:55:54.649Z,99117.30
2018-09-17T18:58:23.213Z,99120.22
2018-09-17T19:00:52.462Z,99115.75
2018-09-17T19:03:21.510Z,99122.46
2018-09-17T19:05:49.997Z,99119.33
2018-09-17T19:08:18.391Z,99120.08
2018-09-17T19:10:47.704Z,99123.16
2018-09-17T19:13:16.119Z,99124.02
2018-09-17T19:15:49.733Z,99118.70
2018-09-17T19:18:19.046Z,99124.93
2018-09-17T19:20:48.982Z,99119.78
2018-09-17T19:23:22.360Z,99123.02
2018-09-17T19:25:52.159Z,99124.52
2018-09-17T19:28:25.978Z,99114.50
2018-09-17T19:30:54.388Z,99113.22
2018-09-17T19:33:23.289Z,99115.77
2018-09-17T19:35:52.081Z,99111.90
2018-09-17T19:38:25.865Z,99116.08
2018-09-17T19:40:54.271Z,99115.10
2018-09-17T19:43:23.207Z,99115.98
2018-09-17T19:45:57.674Z,99114.34
2018-09-17T19:48:26.230Z,99112.89
2018-09-17T19:50:59.905Z,99117.95
2018-09-17T19:53:28.327Z,99119.48
2018-09-17T19:55:56.984Z,99118.63
2018-09-17T19:58:31.763Z,99117.50
2018-09-17T20:01:00.248Z,99119.86
2018-09-17T20:03:28.733Z,99120.02
2018-09-17T20:06:03.377Z,99119.00
2018-09-17T20:08:32.304Z,99111.98
2018-09-17T20:11:00.751Z,99116.33
2018-09-17T20:13:29.208Z,99118.56
2018-09-17T20:16:00.291Z,99115.39
2018-09-17T20:18:29.348Z,99118.56
2018-09-17T20:20:57.930Z,99117.41
2018-09-17T20:23:26.916Z,99126.61
2018-09-17T20:25:55.694Z,99114.41
2018-09-17T20:28:24.518Z,99121.45
2018-09-17T20:30:53.008Z,99115.41
2018-09-17T20:33:23.515Z,99120.44
2018-09-17T20:35:52.888Z,99120.60
2018-09-17T20:38:21.440Z,99112.22
2018-09-17T20:40:49.861Z,99110.39
2018-09-17T20:43:18.382Z,99114.92
2018-09-17T20:45:46.916Z,99114.11
2018-09-17T20:48:15.396Z,99115.78
2018-09-17T20:50:43.851Z,99115.75
2018-09-17T20:53:13.741Z,99114.77
2018-09-17T20:55:42.309Z,99109.73
2018-09-17T20:58:12.108Z,99110.25
2018-09-17T21:00:40.543Z,99109.59
2018-09-17T21:03:09.018Z,99106.57
2018-09-17T21:05:37.677Z,99111.41
2018-09-17T21:08:07.224Z,99109.42
2018-09-17T21:10:35.661Z,99111.41
2018-09-17T21:13:04.164Z,99104.91
2018-09-17T21:15:32.628Z,99107.75
2018-09-17T21:18:01.219Z,99100.38
2018-09-17T21:20:29.719Z,99100.85
2018-09-17T21:22:58.169Z,99102.03
2018-09-17T21:25:26.780Z,99102.19
2018-09-17T21:27:56.242Z,99101.37
2018-09-17T21:30:24.706Z,99102.72
2018-09-17T21:32:53.196Z,99103.89
2018-09-17T21:35:21.733Z,99106.69
2018-09-17T21:37:50.219Z,99104.33
2018-09-17T21:40:19.304Z,99105.14
2018-09-17T21:42:47.812Z,99103.51
2018-09-17T21:45:16.231Z,99100.00
2018-09-17T21:47:44.818Z,99093.84
2018-09-17T21:50:13.904Z,99096.15
2018-09-17T21:52:42.412Z,99098.66
2018-09-17T21:55:11.404Z,99101.73
2018-09-17T21:57:40.005Z,99097.62
2018-09-17T22:00:09.607Z,99096.95
2018-09-17T22:02:38.726Z,99109.80
2018-09-17T22:05:07.339Z,99103.30
2018-09-17T22:07:35.900Z,99102.45
2018-09-17T22:10:04.584Z,99092.59
2018-09-17T22:12:34.143Z,99097.98
2018-09-17T22:15:02.655Z,99094.08
2018-09-17T22:17:31.845Z,99100.63
2018-09-17T22:20:15.909Z,99090.71
2018-09-17T22:22:44.510Z,99093.48
2018-09-17T22:25:12.935Z,99090.17
2018-09-17T22:27:41.644Z,99089.02
2018-09-17T22:30:10.162Z,99091.14
2018-09-17T22:32:38.667Z,99094.84
2018-09-17T22:35:07.106Z,99087.80
2018-09-17T22:37:35.633Z,99092.02
2018-09-17T22:40:04.190Z,99085.66
2018-09-17T22:42:32.737Z,99086.77
2018-09-17T22:45:01.142Z,99085.77
2018-09-17T22:47:29.736Z,99083.97
2018-09-17T22:49:58.302Z,99084.80
2018-09-17T22:52:27.894Z,99080.16
2018-09-17T22:54:56.341Z,99082.59
2018-09-17T22:57:24.800Z,99086.42
2018-09-17T22:59:53.298Z,99087.94
2018-09-17T23:02:22.269Z,99081.05
2018-09-17T23:04:50.817Z,99078.22
2018-09-17T23:07:19.361Z,99073.86
2018-09-17T23:09:47.828Z,99077.69
2018-09-17T23:12:16.600Z,99083.61
2018-09-17T23:14:45.859Z,99076.84
2018-09-17T23:17:14.361Z,99069.11
2018-09-17T23:19:42.886Z,99069.30
2018-09-17T23:22:11.379Z,99079.73
2018-09-17T23:24:39.882Z,99073.60
2018-09-17T23:27:08.326Z,99081.22
2018-09-17T23:29:36.797Z,99074.66
2018-09-17T23:32:05.251Z,99075.59
2018-09-17T23:34:33.735Z,99080.59
2018-09-17T23:37:03.007Z,99078.41
2018-09-17T23:39:32.024Z,99074.67
2018-09-17T23:42:00.487Z,99064.63
2018-09-17T23:44:28.977Z,99064.77
2018-09-17T23:46:57.511Z,99072.17
2018-09-17T23:49:26.683Z,99069.33
2018-09-17T23:51:55.108Z,99058.47
2018-09-17T23:54:23.632Z,99059.96
2018-09-17T23:56:52.199Z,99062.83
2018-09-17T23:59:20.809Z,99055.47
